Time;durP1;ratioP1;P1;durP2;ratioP2;P2;SDS_P1;SDS_P2;PMS_P1;PMS_P2;Temp;Humidity;BMP_temperature;BMP_pressure;BME280_temperature;BME280_humidity;BME280_pressure;Samples;Min_cycle;Max_cycle;Signal;HPM_P1;HPM_P2
2021/08/02 00:02:06;;;;;;;2.93;1.90;;;13.50;99.90;;;14.32;100.00;97872.06;5026723;28;20493;-86
2021/08/02 00:04:49;;;;;;;4.23;1.83;;;13.30;99.90;;;14.36;100.00;97860.13;5023270;28;20466;-86
2021/08/02 00:07:21;;;;;;;5.50;2.10;;;13.20;99.90;;;14.27;100.00;97867.44;5021545;28;20978;-86
2021/08/02 00:09:52;;;;;;;2.97;1.60;;;13.10;99.90;;;14.27;100.00;97869.25;5023838;28;20558;-86
2021/08/02 00:12:27;;;;;;;3.27;1.97;;;13.10;99.90;;;14.16;100.00;97870.75;5024158;28;20466;-86
2021/08/02 00:14:58;;;;;;;2.07;1.80;;;13.00;99.90;;;14.04;100.00;97868.03;5028564;28;20470;-85
2021/08/02 00:17:27;;;;;;;5.70;2.10;;;13.00;99.90;;;14.10;100.00;97861.91;5025003;28;20465;-86
2021/08/02 00:19:55;;;;;;;9.63;1.97;;;13.00;99.90;;;14.19;100.00;97869.53;5027887;28;21013;-86
2021/08/02 00:22:26;;;;;;;3.87;2.20;;;13.00;99.90;;;14.24;100.00;97865.25;5024137;28;20805;-85
2021/08/02 00:24:54;;;;;;;2.43;1.70;;;13.10;99.90;;;14.01;100.00;97870.28;5026692;28;20524;-86
2021/08/02 00:27:23;;;;;;;3.20;2.13;;;12.80;99.90;;;13.94;100.00;97880.03;5029497;28;20523;-86
2021/08/02 00:29:53;;;;;;;2.33;1.87;;;12.80;99.90;;;14.03;100.00;97871.66;5025441;28;20466;-86
2021/08/02 00:32:22;;;;;;;1.97;1.77;;;12.90;99.90;;;14.01;100.00;97878.16;5024916;28;20543;-86
2021/08/02 00:34:50;;;;;;;4.90;2.20;;;13.00;99.90;;;14.04;100.00;97872.47;5023458;28;20528;-86
2021/08/02 00:37:31;;;;;;;12.47;2.03;;;13.00;99.90;;;14.09;100.00;97875.28;5032791;28;20445;-85
2021/08/02 00:40:16;;;;;;;2.57;1.90;;;13.00;99.90;;;14.04;100.00;97872.47;5023640;28;20958;-85
2021/08/02 00:43:01;;;;;;;2.60;1.90;;;13.00;99.90;;;14.08;100.00;97879.72;5029126;28;20490;-86
2021/08/02 00:45:33;;;;;;;2.33;1.70;;;13.00;99.90;;;14.10;100.00;97877.69;5019389;28;20950;-86
2021/08/02 00:48:07;;;;;;;3.00;2.07;;;13.00;99.90;;;14.15;100.00;97868.34;5029859;28;20501;-86
2021/08/02 00:50:39;;;;;;;2.97;1.70;;;13.10;99.90;;;14.07;100.00;97872.84;5022251;28;20506;-86
2021/08/02 00:53:12;;;;;;;7.13;2.07;;;13.10;99.90;;;14.08;100.00;97869.22;5024637;28;20985;-86
2021/08/02 00:55:48;;;;;;;2.63;1.83;;;13.00;99.90;;;13.97;100.00;97863.81;5025591;28;20920;-86
2021/08/02 00:58:20;;;;;;;3.10;1.80;;;12.90;99.90;;;14.07;100.00;97872.03;5027870;28;21452;-85
2021/08/02 01:00:50;;;;;;;7.90;2.53;;;13.00;99.90;;;14.05;100.00;97872.28;5019847;28;20501;-85
2021/08/02 01:03:18;;;;;;;2.63;1.90;;;13.00;99.90;;;14.05;100.00;97868.84;5024527;28;20971;-85
2021/08/02 01:05:52;;;;;;;1.90;1.70;;;13.00;99.90;;;13.81;100.00;97872.22;5023909;28;20458;-86
2021/08/02 01:08:26;;;;;;;2.60;2.03;;;12.70;99.90;;;13.74;100.00;97876.72;5026781;28;20458;-85
2021/08/02 01:10:58;;;;;;;5.90;1.87;;;12.60;99.90;;;13.67;100.00;97878.56;5021536;28;20514;-86
2021/08/02 01:13:30;;;;;;;1.93;1.73;;;12.50;99.90;;;13.75;100.00;97870.44;5024491;28;20810;-86
2021/08/02 01:16:03;;;;;;;9.07;2.37;;;12.80;99.90;;;13.82;100.00;97868.56;5017756;28;21010;-86
2021/08/02 01:18:34;;;;;;;2.57;2.10;;;12.80;99.90;;;13.88;100.00;97865.88;5021278;28;20918;-85
2021/08/02 01:21:06;;;;;;;2.27;1.70;;;12.90;99.90;;;13.82;100.00;97858.06;5033192;28;20501;-85
2021/08/02 01:23:38;;;;;;;3.63;2.07;;;12.80;99.90;;;13.85;100.00;97858.44;5018674;28;20825;-85
2021/08/02 01:26:49;;;;;;;7.83;1.90;;;12.80;99.90;;;13.90;100.00;97863.06;5021110;28;20461;-86
2021/08/02 01:30:12;;;;;;;2.50;2.17;;;12.80;99.90;;;14.00;100.00;97866.84;5024339;28;21048;-85
2021/08/02 01:32:41;;;;;;;1.97;1.80;;;12.90;99.90;;;14.02;100.00;97874.53;5025151;28;20474;-85
2021/08/02 01:35:12;;;;;;;6.53;2.00;;;13.10;99.90;;;14.02;100.00;97864.00;5031616;28;20442;-85
2021/08/02 01:37:43;;;;;;;6.67;2.23;;;13.10;99.90;;;14.06;100.00;97859.91;5035785;28;20449;-85
2021/08/02 01:40:14;;;;;;;2.30;1.63;;;13.10;99.90;;;14.00;100.00;97866.03;5023274;28;20559;-85
2021/08/02 01:42:43;;;;;;;11.30;2.13;;;13.00;99.90;;;13.90;100.00;97866.50;5027949;28;20446;-85
2021/08/02 01:45:12;;;;;;;3.27;2.00;;;12.90;99.90;;;13.78;100.00;97867.41;5020705;28;20466;-85
2021/08/02 01:48:00;;;;;;;2.10;1.80;;;12.70;99.90;;;13.77;100.00;97863.16;5019701;28;20475;-86
2021/08/02 01:50:41;;;;;;;1.80;1.70;;;12.80;99.90;;;13.70;100.00;97860.56;5020773;28;20898;-86
2021/08/02 01:53:21;;;;;;;2.27;1.87;;;12.60;99.90;;;13.82;100.00;97860.69;5023839;28;20528;-86
2021/08/02 01:56:05;;;;;;;2.20;1.80;;;12.80;99.90;;;13.87;100.00;97861.69;5019380;28;20951;-85
2021/08/02 01:58:45;;;;;;;2.60;2.07;;;12.90;99.90;;;13.88;100.00;97862.47;5022566;28;20473;-86
2021/08/02 02:01:14;;;;;;;3.13;1.80;;;12.80;99.90;;;13.92;100.00;97863.63;5022959;28;20933;-85
2021/08/02 02:03:44;;;;;;;3.73;1.60;;;12.90;99.90;;;13.98;100.00;97858.38;5023045;28;20475;-85
2021/08/02 02:06:17;;;;;;;6.47;1.90;;;12.90;99.90;;;13.93;100.00;97862.63;5023854;28;20478;-86
2021/08/02 02:08:53;;;;;;;2.27;2.00;;;13.00;99.90;;;13.85;100.00;97860.28;5022177;28;20521;-86
2021/08/02 02:11:26;;;;;;;5.57;2.00;;;12.90;99.90;;;13.89;100.00;97859.63;5023935;28;20483;-86
2021/08/02 02:14:01;;;;;;;1.80;1.43;;;12.90;99.90;;;13.95;100.00;97858.75;5028184;28;20989;-85
2021/08/02 02:16:33;;;;;;;3.90;2.37;;;13.00;99.90;;;13.70;100.00;97860.56;5022748;28;20462;-85
2021/08/02 02:19:07;;;;;;;1.97;1.83;;;12.70;99.90;;;13.67;100.00;97865.44;5026098;28;20484;-86
2021/08/02 02:21:37;;;;;;;2.10;1.70;;;12.70;99.90;;;13.71;100.00;97856.13;5025381;28;20563;-85
2021/08/02 02:24:07;;;;;;;5.77;2.50;;;12.60;99.90;;;13.74;100.00;97860.94;5022746;28;20470;-85
2021/08/02 02:26:40;;;;;;;2.77;2.20;;;12.70;99.90;;;13.71;100.00;97867.41;5023352;28;20794;-85
2021/08/02 02:29:11;;;;;;;3.50;2.07;;;12.60;99.90;;;13.64;100.00;97871.13;5022514;28;20899;-85
2021/08/02 02:31:43;;;;;;;6.40;2.30;;;12.50;99.90;;;13.65;100.00;97872.72;5024315;28;20523;-86
2021/08/02 02:34:14;;;;;;;9.77;2.20;;;12.60;99.90;;;13.70;100.00;97871.06;5020130;28;20474;-85
2021/08/02 02:36:45;;;;;;;2.57;2.00;;;12.70;99.90;;;13.70;100.00;97868.44;5019733;28;20463;-85
2021/08/02 02:39:15;;;;;;;3.40;2.20;;;12.70;99.90;;;13.51;100.00;97875.41;5021643;28;20474;-86
2021/08/02 02:41:48;;;;;;;1.70;1.60;;;12.50;99.90;;;13.46;100.00;97872.63;5015829;28;21037;-85
2021/08/02 02:44:18;;;;;;;2.50;1.80;;;12.40;99.90;;;13.53;100.00;97881.28;5026459;28;20466;-85
2021/08/02 02:46:47;;;;;;;7.80;2.00;;;12.50;99.90;;;13.58;100.00;97870.94;5018025;28;20489;-85
2021/08/02 02:49:19;;;;;;;2.37;1.83;;;12.60;99.90;;;13.57;100.00;97869.31;5021447;28;20902;-86
2021/08/02 02:51:51;;;;;;;2.37;2.10;;;12.60;99.90;;;13.45;100.00;97870.19;5015918;28;20474;-85
2021/08/02 02:54:23;;;;;;;5.60;2.10;;;12.40;99.90;;;13.49;100.00;97874.81;5016453;28;20458;-86
2021/08/02 02:56:56;;;;;;;2.40;2.20;;;12.40;99.90;;;13.45;100.00;97876.25;5020137;28;22453;-86
2021/08/02 02:59:26;;;;;;;5.47;2.17;;;12.30;99.90;;;13.38;100.00;97875.47;5020589;28;20707;-86
2021/08/02 03:01:56;;;;;;;4.50;2.13;;;12.30;99.90;;;13.30;100.00;97880.94;5022495;28;20902;-86
2021/08/02 03:04:31;;;;;;;24.40;2.47;;;12.20;99.90;;;13.34;100.00;97876.09;5025320;28;20985;-86
2021/08/02 03:07:02;;;;;;;2.30;2.00;;;12.20;99.90;;;13.38;100.00;97883.34;5028819;28;20462;-86
2021/08/02 03:09:38;;;;;;;4.70;2.80;;;12.40;99.90;;;13.31;100.00;97882.56;5017878;28;20458;-86
2021/08/02 03:12:09;;;;;;;2.53;2.07;;;12.30;99.90;;;13.35;100.00;97875.91;5018851;28;20466;-85
2021/08/02 03:14:38;;;;;;;3.33;2.00;;;12.30;99.90;;;13.29;100.00;97882.00;5024118;28;20442;-86
2021/08/02 03:17:08;;;;;;;7.43;2.40;;;12.30;99.90;;;13.28;100.00;97883.00;5021495;28;20470;-85
2021/08/02 03:19:39;;;;;;;3.07;2.07;;;12.20;99.90;;;13.20;100.00;97877.97;5020696;28;20474;-86
2021/08/02 03:22:24;;;;;;;6.10;2.57;;;12.10;99.90;;;13.25;100.00;97882.59;5019041;28;20516;-86
2021/08/02 03:25:05;;;;;;;2.40;1.70;;;12.20;99.90;;;13.19;100.00;97878.19;5019574;28;20547;-86
2021/08/02 03:27:44;;;;;;;2.53;2.00;;;12.20;99.90;;;13.21;100.00;97886.66;5023695;28;20462;-85
2021/08/02 03:30:15;;;;;;;2.50;2.10;;;12.10;99.90;;;13.28;100.00;97888.25;5020624;28;20474;-85
2021/08/02 03:32:47;;;;;;;3.00;2.40;;;12.20;99.90;;;13.22;100.00;97893.53;5022484;28;20466;-86
2021/08/02 03:35:19;;;;;;;4.20;2.00;;;12.20;99.90;;;13.23;100.00;97895.94;5020907;28;20512;-86
2021/08/02 03:37:50;;;;;;;2.80;2.17;;;12.30;99.90;;;13.29;100.00;97894.31;5023113;28;20462;-86
2021/08/02 03:40:20;;;;;;;3.80;2.10;;;12.30;99.90;;;13.29;100.00;97896.94;5016155;28;20519;-86
2021/08/02 03:42:51;;;;;;;3.50;2.17;;;12.30;99.90;;;13.24;100.00;97892.28;5021319;28;20509;-86
2021/08/02 03:45:20;;;;;;;7.57;2.83;;;12.30;99.90;;;13.12;100.00;97896.56;5031137;28;20449;-85
2021/08/02 03:47:50;;;;;;;3.30;1.83;;;12.20;99.90;;;13.17;100.00;97906.47;5022567;28;21213;-86
2021/08/02 03:50:19;;;;;;;5.10;2.17;;;12.20;99.90;;;13.13;100.00;97900.81;5018031;28;20491;-84
2021/08/02 03:52:48;;;;;;;2.70;2.00;;;12.10;99.90;;;13.17;100.00;97903.81;5027004;28;20539;-87
2021/08/02 03:55:20;;;;;;;4.60;1.90;;;12.20;99.90;;;13.24;100.00;97907.25;5020582;28;20470;-87
2021/08/02 03:57:50;;;;;;;4.40;2.37;;;12.30;99.90;;;13.33;100.00;97916.53;5021144;28;20461;-86
2021/08/02 04:00:21;;;;;;;5.40;2.23;;;12.30;99.90;;;13.37;100.00;97915.88;5027317;28;20481;-86
2021/08/02 04:02:50;;;;;;;2.40;2.10;;;12.40;99.90;;;13.44;100.00;97907.97;5027474;28;20494;-86
2021/08/02 04:05:20;;;;;;;4.30;1.87;;;12.40;99.90;;;13.45;100.00;97905.16;5027606;28;20446;-86
2021/08/02 04:07:49;;;;;;;2.03;1.73;;;12.50;99.90;;;13.33;100.00;97909.44;5025497;28;20500;-87
2021/08/02 04:10:17;;;;;;;5.40;2.00;;;12.30;99.90;;;13.32;100.00;97907.84;5027865;28;20815;-87
2021/08/02 04:12:45;;;;;;;3.13;1.90;;;12.30;99.90;;;13.38;100.00;97909.63;5026130;28;20465;-86
2021/08/02 04:15:15;;;;;;;3.00;2.00;;;12.40;99.90;;;13.41;100.00;97914.47;5026513;28;20453;-86
2021/08/02 04:17:44;;;;;;;3.73;2.03;;;12.40;99.90;;;13.36;100.00;97914.25;5027992;28;20508;-86
2021/08/02 04:20:15;;;;;;;2.47;2.03;;;12.40;99.90;;;13.30;100.00;97911.66;5021451;28;20476;-87
2021/08/02 04:22:47;;;;;;;3.27;2.23;;;12.30;99.90;;;13.34;100.00;97915.50;5027594;28;20493;-86
2021/08/02 04:25:16;;;;;;;13.60;5.00;;;12.40;99.90;;;13.34;100.00;97921.56;5022679;28;20532;-83
2021/08/02 04:27:44;;;;;;;3.10;2.37;;;12.40;99.90;;;13.37;100.00;97922.94;5017278;28;21037;-86
2021/08/02 04:30:15;;;;;;;3.60;2.20;;;12.40;99.90;;;13.40;100.00;97923.34;5022291;28;20474;-87
2021/08/02 04:32:45;;;;;;;8.13;2.00;;;12.50;99.90;;;13.43;100.00;97933.44;5027399;28;20918;-88
2021/08/02 04:35:13;;;;;;;5.13;2.30;;;12.50;99.90;;;13.47;100.00;97932.00;5031694;28;20466;-88
2021/08/02 04:37:42;;;;;;;3.43;2.23;;;12.60;99.90;;;13.53;100.00;97928.56;5030801;28;20541;-88
2021/08/02 04:40:12;;;;;;;2.57;1.60;;;12.70;99.90;;;13.56;100.00;97916.81;5036216;28;20457;-88
2021/08/02 04:42:41;;;;;;;2.27;1.83;;;12.80;99.90;;;13.58;100.00;97905.09;5030802;28;20513;-87
2021/08/02 04:45:12;;;;;;;3.97;2.30;;;12.70;99.90;;;13.64;100.00;97905.28;5029548;28;20548;-86
2021/08/02 04:47:42;;;;;;;3.40;2.07;;;12.80;99.90;;;13.67;100.00;97896.97;5028258;28;20474;-84
2021/08/02 04:50:11;;;;;;;2.97;2.27;;;12.90;99.90;;;13.67;100.00;97902.22;5029512;28;20862;-82
2021/08/02 04:52:42;;;;;;;2.57;2.20;;;12.80;99.90;;;13.58;100.00;97899.81;5026152;28;20458;-84
2021/08/02 04:55:11;;;;;;;2.20;2.00;;;12.70;99.90;;;13.43;100.00;97901.13;5026939;28;20524;-84
2021/08/02 04:57:40;;;;;;;5.07;2.30;;;12.50;99.90;;;13.50;100.00;97889.56;5027048;28;20523;-84
2021/08/02 05:00:10;;;;;;;8.33;2.20;;;12.60;99.90;;;13.43;100.00;97896.66;5024428;28;20539;-84
2021/08/02 05:02:40;;;;;;;3.60;2.10;;;12.50;99.90;;;13.52;100.00;97884.91;5022861;28;20548;-84
2021/08/02 05:05:11;;;;;;;2.30;2.07;;;12.60;99.90;;;13.59;100.00;97890.13;5024680;28;20535;-84
2021/08/02 05:07:40;;;;;;;10.10;2.53;;;12.70;99.90;;;13.58;100.00;97881.44;5026052;28;20799;-85
2021/08/02 05:10:10;;;;;;;4.10;1.80;;;12.70;99.90;;;13.57;100.00;97895.59;5029316;28;20454;-85
2021/08/02 05:12:39;;;;;;;5.70;3.93;;;12.70;99.90;;;13.51;100.00;97888.53;5031056;28;20517;-84
2021/08/02 05:15:11;;;;;;;4.60;2.37;;;12.60;99.90;;;13.59;100.00;97890.94;5032384;28;20449;-85
2021/08/02 05:17:40;;;;;;;6.20;2.57;;;12.70;99.90;;;13.69;100.00;97898.38;5031296;28;20939;-85
2021/08/02 05:20:11;;;;;;;2.63;2.30;;;12.80;99.90;;;13.75;100.00;97894.06;5017580;28;20501;-84
2021/08/02 05:22:39;;;;;;;4.57;2.27;;;12.90;99.90;;;13.80;100.00;97894.25;5021927;28;21042;-88
2021/08/02 05:25:10;;;;;;;2.80;2.40;;;12.90;99.90;;;13.82;100.00;97889.59;5027272;28;20445;-88
2021/08/02 05:27:39;;;;;;;4.63;2.00;;;13.00;99.90;;;13.85;100.00;97894.44;5021810;28;20508;-88
2021/08/02 05:30:09;;;;;;;2.50;1.93;;;13.10;99.90;;;13.92;100.00;97889.94;5037347;28;20997;-88
2021/08/02 05:32:38;;;;;;;3.33;2.10;;;13.10;99.90;;;13.97;100.00;97898.00;5031078;28;20440;-88
2021/08/02 05:35:08;;;;;;;3.83;2.53;;;13.10;99.90;;;13.98;100.00;97904.88;5032458;28;20454;-88
2021/08/02 05:37:38;;;;;;;2.77;2.20;;;13.20;99.90;;;13.96;100.00;97905.06;5032183;28;20951;-89
2021/08/02 05:40:09;;;;;;;4.00;2.90;;;13.30;99.90;;;13.97;100.00;97909.31;5023658;28;20466;-89
2021/08/02 05:42:37;;;;;;;6.53;2.33;;;13.20;99.90;;;14.00;100.00;97908.91;5032434;28;20502;-87
2021/08/02 05:45:09;;;;;;;2.90;2.17;;;13.20;99.90;;;14.01;100.00;97904.44;5025227;28;20808;-88
2021/08/02 05:47:39;;;;;;;4.17;2.50;;;13.20;99.90;;;14.07;100.00;97916.75;5024156;28;20442;-88
2021/08/02 05:50:09;;;;;;;7.97;3.37;;;13.20;99.90;;;14.11;100.00;97907.41;5036795;28;20497;-87
2021/08/02 05:52:41;;;;;;;3.13;2.20;;;13.20;99.90;;;14.17;100.00;97911.81;5032221;28;20834;-88
2021/08/02 05:55:13;;;;;;;3.90;2.40;;;13.30;99.90;;;14.24;100.00;97912.59;5026399;28;20450;-88
2021/08/02 05:57:43;;;;;;;3.60;2.60;;;13.40;99.90;;;14.28;100.00;97913.78;5031399;28;20817;-88
2021/08/02 06:00:13;;;;;;;2.97;2.20;;;13.50;99.90;;;14.37;100.00;97927.50;5036518;28;20478;-88
2021/08/02 06:02:42;;;;;;;3.33;2.40;;;13.50;99.90;;;14.43;100.00;97919.56;5033706;28;20806;-88
2021/08/02 06:05:12;;;;;;;3.97;2.50;;;13.60;99.90;;;14.50;100.00;97914.25;5034721;28;20477;-88
2021/08/02 06:07:43;;;;;;;3.60;2.60;;;13.60;99.90;;;14.55;100.00;97923.09;5034561;28;20496;-87
2021/08/02 06:10:12;;;;;;;3.73;2.53;;;13.70;99.90;;;14.59;100.00;97920.84;5039068;28;20482;-88
2021/08/02 06:12:41;;;;;;;3.77;2.30;;;13.70;99.90;;;14.61;100.00;97927.50;5033458;28;20531;-89
2021/08/02 06:15:12;;;;;;;4.17;2.90;;;13.70;99.90;;;14.67;100.00;97930.31;5028597;28;20453;-87
2021/08/02 06:17:40;;;;;;;4.10;2.53;;;13.70;99.90;;;14.75;100.00;97932.66;5033053;28;20849;-88
2021/08/02 06:20:11;;;;;;;2.90;2.63;;;13.80;99.90;;;14.83;100.00;97929.75;5029990;28;20454;-87
2021/08/02 06:22:41;;;;;;;3.27;2.60;;;13.90;99.90;;;14.89;100.00;97928.91;5032535;28;20489;-88
2021/08/02 06:25:10;;;;;;;2.27;2.07;;;14.00;99.90;;;14.95;100.00;97928.81;5031718;28;21170;-88
2021/08/02 06:27:40;;;;;;;3.03;2.53;;;14.10;99.90;;;15.02;100.00;97931.41;5030989;28;20462;-88
2021/08/02 06:30:10;;;;;;;5.40;2.53;;;14.10;99.90;;;15.07;100.00;97929.69;5031886;28;20817;-88
2021/08/02 06:32:38;;;;;;;3.30;2.53;;;14.20;99.90;;;15.13;100.00;97926.19;5028275;28;20919;-88
2021/08/02 06:35:09;;;;;;;3.80;2.30;;;14.20;99.90;;;15.17;100.00;97931.06;5031440;28;20450;-87
2021/08/02 06:37:41;;;;;;;7.90;3.03;;;14.30;99.90;;;15.17;100.00;97934.47;5032143;28;20542;-88
2021/08/02 06:40:11;;;;;;;3.70;2.53;;;14.30;99.90;;;15.22;100.00;97941.72;5029150;28;20462;-89
2021/08/02 06:42:41;;;;;;;7.40;2.53;;;14.30;99.90;;;15.29;100.00;97940.63;5031513;28;20473;-88
2021/08/02 06:45:12;;;;;;;3.23;2.90;;;14.40;99.90;;;15.34;100.00;97932.84;5032016;28;20955;-88
2021/08/02 06:47:41;;;;;;;3.83;2.60;;;14.50;99.90;;;15.40;100.00;97931.19;5020550;28;20512;-88
2021/08/02 06:50:11;;;;;;;4.60;2.63;;;14.50;99.90;;;15.47;100.00;97943.28;5027673;28;20502;-88
2021/08/02 06:52:41;;;;;;;3.00;2.37;;;14.60;99.90;;;15.49;100.00;97946.50;5026280;28;20450;-88
2021/08/02 06:55:11;;;;;;;6.40;2.93;;;14.60;99.90;;;15.54;100.00;97946.66;5030058;28;20822;-88
2021/08/02 06:57:40;;;;;;;7.13;2.40;;;14.70;99.90;;;15.58;100.00;97949.66;5031122;28;20457;-88
2021/08/02 07:00:10;;;;;;;4.10;2.70;;;14.70;99.90;;;15.56;100.00;97944.59;5031341;28;20478;-87
2021/08/02 07:02:39;;;;;;;2.90;2.20;;;14.70;99.90;;;15.57;100.00;97943.59;5030262;28;20450;-88
2021/08/02 07:05:10;;;;;;;4.30;2.77;;;14.70;99.90;;;15.62;100.00;97953.44;5027776;28;20833;-88
2021/08/02 07:07:41;;;;;;;4.60;2.97;;;14.80;99.90;;;15.62;100.00;97952.66;5037009;28;20449;-88
2021/08/02 07:10:11;;;;;;;4.43;2.60;;;14.70;99.90;;;15.65;100.00;97954.84;5041515;28;20457;-88
2021/08/02 07:12:40;;;;;;;5.10;3.10;;;14.70;99.90;;;15.72;100.00;97956.41;5033628;28;20453;-88
2021/08/02 07:15:10;;;;;;;2.10;1.87;;;14.80;99.90;;;15.77;100.00;97953.88;5036611;28;20465;-87
2021/08/02 07:17:39;;;;;;;4.73;2.70;;;14.80;99.90;;;15.81;100.00;97955.03;5037545;28;20454;-88
2021/08/02 07:20:09;;;;;;;4.00;2.60;;;14.90;99.90;;;15.85;100.00;97950.13;5034742;28;21031;-88
2021/08/02 07:22:38;;;;;;;3.93;2.67;;;14.90;99.90;;;15.88;100.00;97950.50;5034123;28;20461;-88
2021/08/02 07:25:10;;;;;;;9.17;3.50;;;14.90;99.90;;;15.93;100.00;97947.97;5031444;28;20453;-88
2021/08/02 07:27:38;;;;;;;2.60;2.40;;;15.00;99.90;;;15.96;100.00;97957.31;5030370;28;20457;-88
2021/08/02 07:30:09;;;;;;;3.73;2.57;;;15.00;99.90;;;15.99;100.00;97952.38;5040298;28;20460;-88
2021/08/02 07:32:39;;;;;;;5.07;2.80;;;15.10;99.90;;;16.03;100.00;97956.19;5034569;28;20449;-88
2021/08/02 07:35:09;;;;;;;5.50;2.40;;;15.10;99.90;;;16.05;100.00;97950.66;5032473;28;20537;-88
2021/08/02 07:37:41;;;;;;;4.00;2.20;;;15.10;99.90;;;16.15;100.00;97955.41;5033286;28;20453;-88
2021/08/02 07:40:13;;;;;;;4.20;3.07;;;15.20;99.90;;;16.23;100.00;97955.91;5030928;28;21014;-88
2021/08/02 07:42:42;;;;;;;5.83;2.90;;;15.40;99.90;;;16.29;100.00;97957.63;5030748;28;20450;-88
2021/08/02 07:45:13;;;;;;;4.67;2.53;;;15.40;99.90;;;16.31;100.00;97960.88;5029160;28;20533;-88
2021/08/02 07:47:42;;;;;;;5.30;2.90;;;15.40;99.90;;;16.31;100.00;97960.88;5029492;28;20475;-88
2021/08/02 07:50:12;;;;;;;3.30;3.00;;;15.40;99.90;;;16.36;100.00;97968.09;5024398;28;20482;-88
2021/08/02 07:52:41;;;;;;;5.20;2.90;;;15.50;99.90;;;16.35;100.00;97962.00;5029833;28;20507;-88
2021/08/02 07:55:14;;;;;;;4.90;2.80;;;15.40;99.90;;;16.34;100.00;97968.34;5042900;28;20456;-88
2021/08/02 07:57:43;;;;;;;5.67;2.87;;;15.40;99.90;;;16.40;100.00;97964.78;5033795;28;20533;-88
2021/08/02 08:00:16;;;;;;;4.70;3.07;;;15.50;99.90;;;16.38;100.00;97963.41;5035277;28;20584;-88
2021/08/02 08:02:45;;;;;;;5.50;3.03;;;15.50;99.90;;;16.47;100.00;97960.22;5036362;28;20454;-88
2021/08/02 08:05:16;;;;;;;4.37;2.53;;;15.60;99.90;;;16.50;100.00;97958.94;5035738;28;20493;-88
2021/08/02 08:07:46;;;;;;;3.83;2.40;;;15.70;99.90;;;16.55;100.00;97965.19;5036134;28;20447;-87
2021/08/02 08:10:19;;;;;;;3.90;2.67;;;15.80;99.90;;;16.56;100.00;97963.34;5040472;28;20524;-86
2021/08/02 08:12:49;;;;;;;4.50;2.83;;;15.80;99.90;;;16.59;100.00;97966.34;5033527;28;20459;-88
2021/08/02 08:15:20;;;;;;;5.10;2.67;;;15.80;99.90;;;16.63;100.00;97968.50;5034153;28;20438;-88
2021/08/02 08:17:50;;;;;;;11.63;3.20;;;15.80;99.90;;;16.62;100.00;97964.28;5044317;28;20457;-88
2021/08/02 08:20:22;;;;;;;6.17;2.63;;;15.80;99.90;;;16.67;100.00;97959.13;5038882;28;20454;-88
2021/08/02 08:22:52;;;;;;;4.63;3.30;;;15.80;99.90;;;16.72;100.00;97960.06;5030238;28;20803;-87
2021/08/02 08:25:23;;;;;;;4.07;3.00;;;15.80;99.90;;;16.78;100.00;97955.69;5038398;28;20501;-88
2021/08/02 08:27:52;;;;;;;3.47;2.70;;;15.90;99.90;;;16.83;100.00;97959.25;5041445;28;20497;-88
2021/08/02 08:30:22;;;;;;;5.10;2.70;;;16.00;99.90;;;16.90;100.00;97957.28;5028180;28;20484;-87
2021/08/02 08:32:51;;;;;;;10.63;2.73;;;16.00;99.90;;;16.95;100.00;97953.97;5031404;28;20456;-87
2021/08/02 08:35:20;;;;;;;8.10;2.53;;;16.10;99.90;;;16.96;100.00;97966.16;5033519;28;20457;-86
2021/08/02 08:37:49;;;;;;;5.80;2.03;;;16.10;99.90;;;16.99;100.00;97965.69;5024405;28;20462;-88
2021/08/02 08:40:18;;;;;;;3.83;2.83;;;16.20;99.90;;;17.07;100.00;97960.88;5041290;28;20445;-88
2021/08/02 08:42:50;;;;;;;3.70;2.27;;;16.30;99.90;;;17.10;100.00;97957.78;5037950;28;20447;-88
2021/08/02 08:45:18;;;;;;;10.90;1.93;;;16.40;99.90;;;17.17;100.00;97954.19;5042067;28;20500;-87
2021/08/02 08:47:48;;;;;;;4.23;2.37;;;16.40;99.90;;;17.25;100.00;97961.78;5033952;28;20461;-88
2021/08/02 08:50:17;;;;;;;9.03;2.10;;;16.50;99.90;;;17.29;100.00;97958.44;5039198;28;20528;-88
2021/08/02 08:52:47;;;;;;;3.57;2.10;;;16.50;99.90;;;17.37;100.00;97970.50;5037602;28;20831;-88
2021/08/02 08:55:17;;;;;;;4.10;2.20;;;16.60;99.90;;;17.39;100.00;97966.56;5031257;28;20453;-88
2021/08/02 08:57:47;;;;;;;4.03;2.33;;;16.60;99.90;;;17.48;100.00;97962.56;5041028;28;20450;-89
2021/08/02 09:00:22;;;;;;;5.53;2.50;;;16.70;99.90;;;17.50;100.00;97957.03;5033218;28;20470;-88
2021/08/02 09:02:53;;;;;;;3.90;1.93;;;16.70;99.90;;;17.58;100.00;97956.69;5042627;28;20814;-88
2021/08/02 09:05:31;;;;;;;3.30;2.30;;;16.70;99.90;;;17.71;100.00;97964.38;5032986;28;21095;-89
2021/08/02 09:08:01;;;;;;;2.70;2.50;;;16.90;99.90;;;17.76;100.00;97972.41;5035311;28;20454;-89
2021/08/02 09:10:30;;;;;;;6.30;2.73;;;16.90;99.90;;;17.81;100.00;97961.09;5039632;28;20445;-88
2021/08/02 09:13:03;;;;;;;5.30;2.30;;;17.00;99.90;;;17.89;100.00;97958.09;5034735;28;20470;-88
2021/08/02 09:15:37;;;;;;;2.47;1.90;;;17.10;99.90;;;17.92;100.00;97957.63;5036688;28;20457;-88
2021/08/02 09:18:10;;;;;;;5.73;2.73;;;17.20;99.90;;;17.86;100.00;97962.03;5042696;28;20449;-88
2021/08/02 09:20:39;;;;;;;4.93;2.80;;;17.10;99.90;;;17.94;100.00;97964.31;5031407;28;20926;-89
2021/08/02 09:23:12;;;;;;;3.23;2.33;;;17.20;99.90;;;17.96;100.00;97970.16;5033025;28;20899;-88
2021/08/02 09:25:49;;;;;;;4.13;2.23;;;17.20;99.90;;;17.88;100.00;97975.00;5031924;28;20884;-89
2021/08/02 09:28:22;;;;;;;3.37;2.20;;;17.00;99.90;;;17.73;100.00;97972.06;5040533;28;20461;-88
2021/08/02 09:30:57;;;;;;;5.33;2.10;;;16.80;99.90;;;17.80;100.00;97975.41;5041740;28;20947;-88
2021/08/02 09:33:32;;;;;;;2.53;2.00;;;17.00;99.90;;;17.89;100.00;97969.50;5033307;28;20453;-88
2021/08/02 09:36:02;;;;;;;5.40;2.27;;;17.10;99.90;;;17.94;100.00;97982.03;5034447;28;20453;-89
2021/08/02 09:38:30;;;;;;;2.80;2.27;;;17.20;99.90;;;17.98;100.00;97977.84;5032005;28;20454;-88
2021/08/02 09:41:00;;;;;;;6.60;2.37;;;17.10;99.90;;;18.02;100.00;97973.69;5033780;28;20450;-88
2021/08/02 09:43:34;;;;;;;3.27;2.10;;;17.30;99.90;;;18.04;100.00;97964.50;5038450;28;20943;-88
2021/08/02 09:46:08;;;;;;;3.80;2.50;;;17.20;99.90;;;17.97;100.00;97965.66;5036971;28;20576;-88
2021/08/02 09:48:41;;;;;;;6.33;2.30;;;17.10;99.90;;;18.02;100.00;97963.91;5035632;28;20458;-89
2021/08/02 09:51:13;;;;;;;4.03;2.73;;;17.20;99.90;;;18.05;100.00;97957.34;5040406;28;20580;-88
2021/08/02 09:53:45;;;;;;;11.07;2.00;;;17.20;99.90;;;18.13;100.00;97954.31;5036022;28;20450;-88
2021/08/02 09:56:16;;;;;;;8.43;2.10;;;17.40;99.90;;;18.15;100.00;97944.31;5030872;28;20801;-88
2021/08/02 09:59:08;;;;;;;12.03;1.80;;;17.50;99.90;;;18.23;100.00;97949.19;5035791;28;20450;-89
2021/08/02 10:01:38;;;;;;;5.23;2.40;;;17.50;99.90;;;18.31;100.00;97942.72;5041053;28;20511;-89
2021/08/02 10:04:10;;;;;;;3.07;2.40;;;17.60;99.90;;;18.28;100.00;97945.84;5042878;28;20499;-89
2021/08/02 10:06:40;;;;;;;4.83;2.00;;;17.50;99.90;;;18.30;100.00;97944.56;5039727;28;20457;-89
2021/08/02 10:09:12;;;;;;;4.23;2.27;;;17.50;99.90;;;18.36;100.00;97940.16;5031571;28;20490;-88
2021/08/02 10:11:41;;;;;;;5.30;2.50;;;17.60;99.90;;;18.42;100.00;97932.06;5033600;28;20447;-88
2021/08/02 10:14:14;;;;;;;3.17;2.30;;;17.60;99.90;;;18.43;100.00;97933.66;5040419;28;20469;-89
2021/08/02 10:16:47;;;;;;;3.97;2.10;;;17.60;99.90;;;18.55;100.00;97925.69;5031786;28;20452;-88
2021/08/02 10:19:19;;;;;;;4.67;1.97;;;17.70;99.90;;;18.73;100.00;97935.22;5030514;28;20458;-88
2021/08/02 10:21:50;;;;;;;3.80;2.63;;;17.90;99.90;;;18.75;100.00;97920.69;5039954;28;20454;-88
2021/08/02 10:24:19;;;;;;;3.80;2.23;;;17.90;99.90;;;18.83;100.00;97922.13;5031657;28;20462;-89
2021/08/02 10:26:57;;;;;;;5.13;1.90;;;18.00;99.90;;;18.79;100.00;97923.66;5027623;28;20946;-88
2021/08/02 10:29:38;;;;;;;3.23;2.30;;;17.90;99.90;;;18.83;100.00;97927.44;5030920;28;20442;-89
2021/08/02 10:32:07;;;;;;;2.20;1.80;;;18.00;99.90;;;18.85;100.00;97925.34;5030329;28;20460;-88